createdAt,value
2018-12-11T00:00:52.792Z,4.40
2018-12-11T00:03:21.742Z,4.47
2018-12-11T00:05:50.716Z,4.90
2018-12-11T00:08:19.668Z,4.90
2018-12-11T00:10:48.578Z,5.20
2018-12-11T00:13:17.272Z,5.03
2018-12-11T00:15:46.156Z,5.63
2018-12-11T00:18:15.099Z,4.07
2018-12-11T00:20:43.958Z,5.33
2018-12-11T00:23:12.570Z,4.87
2018-12-11T00:25:41.462Z,4.47
2018-12-11T00:28:10.673Z,4.90
2018-12-11T00:30:39.732Z,4.60
2018-12-11T00:33:08.989Z,5.53
2018-12-11T00:35:37.895Z,5.27
2018-12-11T00:38:07.141Z,5.33
2018-12-11T00:40:36.189Z,5.60
2018-12-11T00:43:05.365Z,4.80
2018-12-11T00:45:34.381Z,4.37
2018-12-11T00:48:03.391Z,4.27
2018-12-11T00:50:32.532Z,4.10
2018-12-11T00:53:01.604Z,4.53
2018-12-11T00:55:30.402Z,3.93
2018-12-11T00:57:59.500Z,3.93
2018-12-11T01:00:28.474Z,4.50
2018-12-11T01:02:57.461Z,4.07
2018-12-11T01:05:26.436Z,3.47
2018-12-11T01:07:55.452Z,4.30
2018-12-11T01:10:24.120Z,4.60
2018-12-11T01:12:52.704Z,4.10
2018-12-11T01:15:21.734Z,4.87
2018-12-11T01:17:50.698Z,4.10
2018-12-11T01:20:19.832Z,4.70
2018-12-11T01:22:48.827Z,4.00
2018-12-11T01:25:17.884Z,4.50
2018-12-11T01:27:46.587Z,4.63
2018-12-11T01:30:15.212Z,4.17
2018-12-11T01:32:44.100Z,4.33
2018-12-11T01:35:13.888Z,4.27
2018-12-11T01:37:42.901Z,4.90
2018-12-11T01:40:11.569Z,4.40
2018-12-11T01:42:40.460Z,4.33
2018-12-11T01:45:09.419Z,4.57
2018-12-11T01:47:38.430Z,4.40
2018-12-11T01:50:07.175Z,4.43
2018-12-11T01:52:36.111Z,4.40
2018-12-11T01:55:04.895Z,4.30
2018-12-11T01:57:33.804Z,4.27
2018-12-11T02:00:02.771Z,4.20
2018-12-11T02:02:32.136Z,4.40
2018-12-11T02:05:01.087Z,3.60
2018-12-11T02:07:29.767Z,3.63
2018-12-11T02:09:58.679Z,3.67
2018-12-11T02:12:27.570Z,3.60
2018-12-11T02:14:56.819Z,3.13
2018-12-11T02:17:25.820Z,3.60
2018-12-11T02:19:54.553Z,3.30
2018-12-11T02:22:23.473Z,3.73
2018-12-11T02:24:52.469Z,3.43
2018-12-11T02:27:21.505Z,3.80
2018-12-11T02:29:50.171Z,3.57
2018-12-11T02:32:19.106Z,3.37
2018-12-11T02:34:48.232Z,3.30
2018-12-11T02:37:17.446Z,3.60
2018-12-11T02:39:46.101Z,3.37
2018-12-11T02:42:14.693Z,3.07
2018-12-11T02:44:43.373Z,3.70
2018-12-11T02:47:12.685Z,3.67
2018-12-11T02:49:41.550Z,3.40
2018-12-11T02:52:10.558Z,2.70
2018-12-11T02:54:39.758Z,3.40
2018-12-11T02:57:08.788Z,2.93
2018-12-11T02:59:37.747Z,3.50
2018-12-11T03:02:07.330Z,3.20
2018-12-11T03:04:36.298Z,2.67
2018-12-11T03:07:04.971Z,3.17
2018-12-11T03:09:33.868Z,3.17
2018-12-11T03:12:02.877Z,3.20
2018-12-11T03:14:31.914Z,3.47
2018-12-11T03:17:00.560Z,3.50
2018-12-11T03:19:29.466Z,3.17
2018-12-11T03:21:58.460Z,3.00
2018-12-11T03:24:27.454Z,2.57
2018-12-11T03:26:56.210Z,3.17
2018-12-11T03:29:25.717Z,2.67
2018-12-11T03:31:54.759Z,2.77
2018-12-11T03:34:23.745Z,2.93
2018-12-11T03:36:52.421Z,2.50
2018-12-11T03:39:21.374Z,3.17
2018-12-11T03:41:50.366Z,2.43
2018-12-11T03:44:19.060Z,3.60
2018-12-11T03:46:47.971Z,2.50
2018-12-11T03:49:16.982Z,2.43
2018-12-11T03:51:46.030Z,2.57
2018-12-11T03:54:15.064Z,2.53
2018-12-11T03:56:44.066Z,2.47
2018-12-11T03:59:13.046Z,2.50
2018-12-11T04:01:42.908Z,2.40
2018-12-11T04:04:11.785Z,2.83
2018-12-11T04:06:40.475Z,2.67
2018-12-11T04:09:09.377Z,2.50
2018-12-11T04:11:38.413Z,2.73
2018-12-11T04:14:07.429Z,2.17
2018-12-11T04:16:36.483Z,2.40
2018-12-11T04:19:05.500Z,2.90
2018-12-11T04:21:34.550Z,2.37
2018-12-11T04:24:04.363Z,1.80
2018-12-11T04:26:33.369Z,2.43
2018-12-11T04:29:02.665Z,2.40
2018-12-11T04:31:31.631Z,2.40
2018-12-11T04:34:00.654Z,2.80
2018-12-11T04:36:29.640Z,3.23
2018-12-11T04:38:58.328Z,2.80
2018-12-11T04:41:27.195Z,3.00
2018-12-11T04:43:56.196Z,2.77
2018-12-11T04:46:25.190Z,2.50
2018-12-11T04:48:54.277Z,2.90
2018-12-11T04:51:23.347Z,2.70
2018-12-11T04:53:52.031Z,3.40
2018-12-11T04:56:20.935Z,2.63
2018-12-11T04:58:49.928Z,2.90
2018-12-11T05:01:18.900Z,2.67
2018-12-11T05:03:48.260Z,2.77
2018-12-11T05:06:17.714Z,3.50
2018-12-11T05:08:47.202Z,2.20
2018-12-11T05:11:16.400Z,3.10
2018-12-11T05:13:45.440Z,3.37
2018-12-11T05:16:14.700Z,2.60
2018-12-11T05:18:43.678Z,3.97
2018-12-11T05:21:12.677Z,2.93
2018-12-11T05:23:41.642Z,3.07
2018-12-11T05:26:10.364Z,2.67
2018-12-11T05:28:39.293Z,2.87
2018-12-11T05:31:08.304Z,3.00
2018-12-11T05:33:36.976Z,2.80
2018-12-11T05:36:05.558Z,3.50
2018-12-11T05:38:34.457Z,2.63
2018-12-11T05:41:04.160Z,2.63
2018-12-11T05:43:33.064Z,3.00
2018-12-11T05:46:02.142Z,3.60
2018-12-11T05:48:30.728Z,3.00
2018-12-11T05:50:59.720Z,3.07
2018-12-11T05:53:28.712Z,2.53
2018-12-11T05:55:57.311Z,2.70
2018-12-11T05:58:26.241Z,2.20
2018-12-11T06:00:55.253Z,2.97
2018-12-11T06:03:24.504Z,2.97
2018-12-11T06:05:53.216Z,3.00
2018-12-11T06:08:22.102Z,2.40
2018-12-11T06:10:51.592Z,2.03
2018-12-11T06:13:20.711Z,2.17
2018-12-11T06:15:49.432Z,2.57
2018-12-11T06:18:18.046Z,3.00
2018-12-11T06:20:46.661Z,3.10
2018-12-11T06:23:16.086Z,2.67
2018-12-11T06:25:45.091Z,3.27
2018-12-11T06:28:14.913Z,2.63
2018-12-11T06:30:44.837Z,3.37
2018-12-11T06:33:13.796Z,2.33
2018-12-11T06:35:42.785Z,3.17
2018-12-11T06:38:11.781Z,2.50
2018-12-11T06:40:40.896Z,2.40
2018-12-11T06:43:09.875Z,2.60
2018-12-11T06:45:38.859Z,2.10
2018-12-11T06:48:07.662Z,1.37
2018-12-11T06:50:36.621Z,2.87
2018-12-11T06:53:05.704Z,2.53
2018-12-11T06:55:35.042Z,2.87
2018-12-11T06:58:04.016Z,1.97
2018-12-11T07:00:33.341Z,2.30
2018-12-11T07:03:02.619Z,2.77
2018-12-11T07:05:31.631Z,3.07
2018-12-11T07:08:00.320Z,3.50
2018-12-11T07:10:29.235Z,3.80
2018-12-11T07:12:58.238Z,3.23
2018-12-11T07:15:27.561Z,3.53
2018-12-11T07:17:56.545Z,3.47
2018-12-11T07:20:25.752Z,3.57
2018-12-11T07:22:54.741Z,3.33
2018-12-11T07:25:23.428Z,3.57
2018-12-11T07:27:52.484Z,3.13
2018-12-11T07:30:21.501Z,3.00
2018-12-11T07:32:50.482Z,2.50
2018-12-11T07:35:19.473Z,3.00
2018-12-11T07:37:48.579Z,3.43
2018-12-11T07:40:17.664Z,3.27
2018-12-11T07:42:46.707Z,2.40
2018-12-11T07:45:15.713Z,2.43
2018-12-11T07:47:45.079Z,2.90
2018-12-11T07:50:14.111Z,2.47
2018-12-11T07:52:43.100Z,3.20
2018-12-11T07:55:12.099Z,3.37
2018-12-11T07:57:41.090Z,2.60
2018-12-11T08:00:11.254Z,2.90
2018-12-11T08:02:40.295Z,2.40
2018-12-11T08:05:10.138Z,2.83
2018-12-11T08:07:39.076Z,3.57
2018-12-11T08:10:08.086Z,3.40
2018-12-11T08:12:37.160Z,2.73
2018-12-11T08:15:07.092Z,3.63
2018-12-11T08:17:36.236Z,3.13
2018-12-11T08:20:04.899Z,3.13
2018-12-11T08:22:33.817Z,2.33
2018-12-11T08:25:02.855Z,2.60
2018-12-11T08:27:32.021Z,2.90
2018-12-11T08:30:00.964Z,2.20
2018-12-11T08:32:30.333Z,3.23
2018-12-11T08:34:59.073Z,2.90
2018-12-11T08:37:27.748Z,2.80
2018-12-11T08:39:56.577Z,2.80
2018-12-11T08:42:25.489Z,2.70
2018-12-11T08:44:54.410Z,2.97
2018-12-11T08:47:23.517Z,3.17
2018-12-11T08:49:52.204Z,3.57
2018-12-11T08:52:21.260Z,3.47
2018-12-11T08:54:50.225Z,3.10
2018-12-11T08:57:19.219Z,3.20
2018-12-11T08:59:48.020Z,3.80
2018-12-11T09:02:16.937Z,2.63
2018-12-11T09:04:45.946Z,3.47
2018-12-11T09:07:14.936Z,3.27
2018-12-11T09:09:44.903Z,3.53
2018-12-11T09:12:13.958Z,2.93
2018-12-11T09:14:43.020Z,3.17
2018-12-11T09:17:13.045Z,2.90
2018-12-11T09:19:41.799Z,3.27
2018-12-11T09:22:10.585Z,3.10
2018-12-11T09:24:39.410Z,2.70
2018-12-11T09:27:08.081Z,3.50
2018-12-11T09:29:37.201Z,2.93
2018-12-11T09:32:06.049Z,2.20
2018-12-11T09:34:35.564Z,3.50
2018-12-11T09:37:04.757Z,3.17
2018-12-11T09:39:33.728Z,2.87
2018-12-11T09:42:07.037Z,2.50
2018-12-11T09:44:33.837Z,2.70
2018-12-11T09:47:03.112Z,3.00
2018-12-11T09:49:32.102Z,2.70
2018-12-11T09:52:01.078Z,2.50
2018-12-11T09:54:30.069Z,2.70
2018-12-11T09:56:59.274Z,3.27
2018-12-11T09:59:28.497Z,3.50
2018-12-11T10:01:57.516Z,3.07
2018-12-11T10:04:26.639Z,2.70
2018-12-11T10:06:55.580Z,3.83
2018-12-11T10:09:24.553Z,3.00
2018-12-11T10:11:53.597Z,2.67
2018-12-11T10:14:22.615Z,2.97
2018-12-11T10:16:52.104Z,2.50
2018-12-11T10:19:21.071Z,2.63
2018-12-11T10:21:49.745Z,2.67
2018-12-11T10:24:20.671Z,3.07
2018-12-11T10:26:50.006Z,2.47
2018-12-11T10:29:18.955Z,2.40
2018-12-11T10:31:48.162Z,3.23
2018-12-11T10:34:17.203Z,2.80
2018-12-11T10:36:49.410Z,2.47
2018-12-11T10:39:18.919Z,2.90
2018-12-11T10:41:49.731Z,2.57
2018-12-11T10:44:19.083Z,2.73
2018-12-11T10:46:48.388Z,2.80
2018-12-11T10:49:17.356Z,2.50
2018-12-11T10:51:46.044Z,3.07
2018-12-11T10:54:14.915Z,2.73
2018-12-11T10:56:43.643Z,2.47
2018-12-11T10:59:12.521Z,3.10
2018-12-11T11:01:45.507Z,2.50
2018-12-11T11:04:14.486Z,3.00
2018-12-11T11:06:43.402Z,2.63
2018-12-11T11:09:12.061Z,2.90
2018-12-11T11:11:42.001Z,2.87
2018-12-11T11:14:10.955Z,2.50
2018-12-11T11:16:39.889Z,2.90
2018-12-11T11:19:08.785Z,2.40
2018-12-11T11:21:38.272Z,2.70
2018-12-11T11:24:07.316Z,2.27
2018-12-11T11:26:36.344Z,2.70
2018-12-11T11:29:05.501Z,2.97
2018-12-11T11:31:34.598Z,3.50
2018-12-11T11:34:03.388Z,3.87
2018-12-11T11:36:32.244Z,4.20
2018-12-11T11:39:01.925Z,4.23
2018-12-11T11:41:30.920Z,5.00
2018-12-11T11:43:59.913Z,3.57
2018-12-11T11:46:28.887Z,4.10
2018-12-11T11:48:57.908Z,4.50
2018-12-11T11:51:27.172Z,4.07
2018-12-11T11:53:56.160Z,3.33
2018-12-11T11:56:25.143Z,3.77
2018-12-11T11:58:54.223Z,3.90
2018-12-11T12:01:23.390Z,3.80
2018-12-11T12:03:52.365Z,3.73
2018-12-11T12:06:21.032Z,3.30
2018-12-11T12:08:49.983Z,3.07
2018-12-11T12:11:18.949Z,2.70
2018-12-11T12:13:47.969Z,2.80
2018-12-11T12:16:16.988Z,2.83
2018-12-11T12:18:46.019Z,3.20
2018-12-11T12:21:14.970Z,2.73
2018-12-11T12:23:43.950Z,3.47
2018-12-11T12:26:12.922Z,2.70
2018-12-11T12:28:42.296Z,3.13
2018-12-11T12:31:11.667Z,3.53
2018-12-11T12:33:40.772Z,3.40
2018-12-11T12:36:09.844Z,3.20
2018-12-11T12:38:38.963Z,4.17
2018-12-11T12:41:07.954Z,4.30
2018-12-11T12:43:37.188Z,4.53
2018-12-11T12:46:06.144Z,4.73
2018-12-11T12:48:35.145Z,4.93
2018-12-11T12:51:04.201Z,4.83
2018-12-11T12:53:33.200Z,4.60
2018-12-11T12:56:02.156Z,4.20
2018-12-11T12:58:31.149Z,4.77
2018-12-11T13:01:00.452Z,5.17
2018-12-11T13:03:29.768Z,4.03
2018-12-11T13:05:58.712Z,4.83
2018-12-11T13:08:27.888Z,4.43
2018-12-11T13:10:57.118Z,4.97
2018-12-11T13:13:26.185Z,3.60
2018-12-11T13:15:55.204Z,4.60
2018-12-11T13:18:24.164Z,3.67
2018-12-11T13:20:53.380Z,4.40
2018-12-11T13:23:22.562Z,4.43
2018-12-11T13:25:51.706Z,3.97
2018-12-11T13:28:20.668Z,3.90
2018-12-11T13:30:49.365Z,4.07
2018-12-11T13:33:18.892Z,4.10
2018-12-11T13:35:48.202Z,3.83
2018-12-11T13:38:17.208Z,3.73
2018-12-11T13:40:46.608Z,3.97
2018-12-11T13:43:15.885Z,3.60
2018-12-11T13:45:44.924Z,3.30
2018-12-11T13:48:14.116Z,3.30
2018-12-11T13:50:43.066Z,3.77
2018-12-11T13:53:12.251Z,3.37
2018-12-11T13:55:41.444Z,3.13
2018-12-11T13:58:10.627Z,2.97
2018-12-11T14:00:39.690Z,3.43
2018-12-11T14:03:08.766Z,3.30
2018-12-11T14:05:37.760Z,3.27
2018-12-11T14:08:06.776Z,3.03
2018-12-11T14:10:36.352Z,3.37
2018-12-11T14:13:05.487Z,2.47
2018-12-11T14:15:34.726Z,3.90
2018-12-11T14:18:03.735Z,3.73
2018-12-11T14:20:32.415Z,3.93
2018-12-11T14:23:01.352Z,3.73
2018-12-11T14:25:30.451Z,3.50
2018-12-11T14:27:59.447Z,3.07
2018-12-11T14:30:28.534Z,4.07
2018-12-11T14:32:57.218Z,3.50
2018-12-11T14:35:26.153Z,3.50
2018-12-11T14:37:55.759Z,4.17
2018-12-11T14:40:24.757Z,3.63
2018-12-11T14:42:53.899Z,3.50
2018-12-11T14:45:22.946Z,3.47
2018-12-11T14:47:51.905Z,3.60
2018-12-11T14:50:20.911Z,3.27
2018-12-11T14:52:49.912Z,3.37
2018-12-11T14:55:18.892Z,3.27
2018-12-11T14:57:48.066Z,4.10
2018-12-11T15:00:17.065Z,3.80
2018-12-11T15:02:46.152Z,3.87
2018-12-11T15:05:15.372Z,3.30
2018-12-11T15:07:44.106Z,3.43
2018-12-11T15:10:13.339Z,3.47
2018-12-11T15:12:42.300Z,4.13
2018-12-11T15:15:11.665Z,3.30
2018-12-11T15:17:40.831Z,3.97
2018-12-11T15:20:10.235Z,3.60
2018-12-11T15:22:39.190Z,4.37
2018-12-11T15:25:08.513Z,3.73
2018-12-11T15:27:37.562Z,3.80
2018-12-11T15:30:07.435Z,3.60
2018-12-11T15:32:36.476Z,3.93
2018-12-11T15:35:05.642Z,3.97
2018-12-11T15:37:34.606Z,3.93
2018-12-11T15:40:04.096Z,4.07
2018-12-11T15:42:32.856Z,4.57
2018-12-11T15:45:02.273Z,4.30
2018-12-11T15:47:30.962Z,4.67
2018-12-11T15:49:59.945Z,4.10
2018-12-11T15:52:29.226Z,4.63
2018-12-11T15:54:58.064Z,5.00
2018-12-11T15:57:26.968Z,4.77
2018-12-11T15:59:56.165Z,4.27
2018-12-11T16:02:25.417Z,4.50
2018-12-11T16:04:54.111Z,4.67
2018-12-11T16:07:23.149Z,4.13
2018-12-11T16:09:52.173Z,5.07
2018-12-11T16:12:21.197Z,4.60
2018-12-11T16:14:50.240Z,4.60
2018-12-11T16:17:18.936Z,4.63
2018-12-11T16:19:48.015Z,3.87
2018-12-11T16:22:17.017Z,3.43
2018-12-11T16:24:47.479Z,5.00
2018-12-11T16:27:16.797Z,4.10
2018-12-11T16:29:45.518Z,3.73
2018-12-11T16:32:14.459Z,4.43
2018-12-11T16:34:43.127Z,4.13
2018-12-11T16:37:12.320Z,4.30
2018-12-11T16:39:41.393Z,6.60
2018-12-11T16:42:10.055Z,4.80
2018-12-11T16:44:39.017Z,4.33
2018-12-11T16:47:07.754Z,5.37
2018-12-11T16:49:36.711Z,6.57
2018-12-11T16:52:05.668Z,6.30
2018-12-11T16:54:34.356Z,5.60
2018-12-11T16:57:03.350Z,6.00
2018-12-11T16:59:32.643Z,5.80
2018-12-11T17:02:01.717Z,6.33
2018-12-11T17:04:30.664Z,6.17
2018-12-11T17:06:59.656Z,5.60
2018-12-11T17:09:28.588Z,5.83
2018-12-11T17:11:58.148Z,5.57
2018-12-11T17:14:27.128Z,5.67
2018-12-11T17:16:56.147Z,5.10
2018-12-11T17:19:24.797Z,5.37
2018-12-11T17:21:53.695Z,4.80
2018-12-11T17:24:22.668Z,4.93
2018-12-11T17:26:51.584Z,5.33
2018-12-11T17:29:24.293Z,4.83
2018-12-11T17:31:51.623Z,5.63
2018-12-11T17:34:20.680Z,5.53
2018-12-11T17:36:49.367Z,5.47
2018-12-11T17:39:17.949Z,5.33
2018-12-11T17:41:47.363Z,4.77
2018-12-11T17:44:16.415Z,4.73
2018-12-11T17:46:45.746Z,5.30
2018-12-11T17:49:14.758Z,4.90
2018-12-11T17:51:43.867Z,5.27
2018-12-11T17:54:49.960Z,5.13
2018-12-11T17:57:22.888Z,4.67
2018-12-11T17:59:51.511Z,5.33
2018-12-11T18:02:25.765Z,5.70
2018-12-11T18:04:54.336Z,4.73
2018-12-11T18:07:22.957Z,4.23
2018-12-11T18:09:51.656Z,5.27
2018-12-11T18:12:20.650Z,6.00
2018-12-11T18:14:49.844Z,5.13
2018-12-11T18:17:18.588Z,5.67
2018-12-11T18:19:47.175Z,5.60
2018-12-11T18:22:15.754Z,5.37
2018-12-11T18:24:44.417Z,4.40
2018-12-11T18:27:13.388Z,5.67
2018-12-11T18:29:42.286Z,5.47
2018-12-11T18:32:11.076Z,4.90
2018-12-11T18:34:49.567Z,5.57
2018-12-11T18:37:18.687Z,5.50
2018-12-11T18:39:52.902Z,4.33
2018-12-11T18:42:22.045Z,5.00
2018-12-11T18:44:51.155Z,4.13
2018-12-11T18:47:20.116Z,5.43
2018-12-11T18:49:49.083Z,5.43
2018-12-11T18:52:18.186Z,5.20
2018-12-11T18:54:47.262Z,5.40
2018-12-11T18:57:16.095Z,4.57
2018-12-11T18:59:45.031Z,4.93
2018-12-11T19:02:21.639Z,5.23
2018-12-11T19:04:50.568Z,5.43
2018-12-11T19:07:20.016Z,5.43
2018-12-11T19:09:49.186Z,5.87
2018-12-11T19:12:17.976Z,4.90
2018-12-11T19:14:47.345Z,5.50
2018-12-11T19:17:16.576Z,5.37
2018-12-11T19:19:45.773Z,6.03
2018-12-11T19:22:14.871Z,6.73
2018-12-11T19:24:47.211Z,5.60
2018-12-11T19:27:16.610Z,5.43
2018-12-11T19:29:45.851Z,5.10
2018-12-11T19:32:15.651Z,6.43
2018-12-11T19:34:44.328Z,6.50
2018-12-11T19:37:13.233Z,5.53
2018-12-11T19:39:42.247Z,5.80
2018-12-11T19:42:11.222Z,5.53
2018-12-11T19:44:49.169Z,5.67
2018-12-11T19:47:18.196Z,5.33
2018-12-11T19:49:47.360Z,5.40
2018-12-11T19:52:16.070Z,6.17
2018-12-11T19:54:44.629Z,5.53
2018-12-11T19:57:13.695Z,5.50
2018-12-11T19:59:42.676Z,6.23
2018-12-11T20:02:11.662Z,5.80
2018-12-11T20:04:41.124Z,5.10
2018-12-11T20:07:09.752Z,5.17
2018-12-11T20:09:42.656Z,5.87
2018-12-11T20:12:11.662Z,4.60
2018-12-11T20:14:40.332Z,6.27
2018-12-11T20:17:08.982Z,5.20
2018-12-11T20:19:37.632Z,5.13
2018-12-11T20:22:06.601Z,4.83
2018-12-11T20:24:35.768Z,4.97
2018-12-11T20:27:04.878Z,5.20
2018-12-11T20:29:37.868Z,4.53
2018-12-11T20:32:06.662Z,4.53
2018-12-11T20:34:35.552Z,5.37
2018-12-11T20:37:04.512Z,4.30
2018-12-11T20:39:33.488Z,4.10
2018-12-11T20:42:02.485Z,4.57
2018-12-11T20:44:31.549Z,4.57
2018-12-11T20:47:00.283Z,4.50
2018-12-11T20:49:28.865Z,4.30
2018-12-11T20:51:58.911Z,4.57
2018-12-11T20:54:27.783Z,4.90
2018-12-11T20:56:56.635Z,4.63
2018-12-11T20:59:25.601Z,4.53
2018-12-11T21:01:55.569Z,4.37
2018-12-11T21:04:24.557Z,4.67
2018-12-11T21:06:53.588Z,4.67
2018-12-11T21:09:22.588Z,4.47
2018-12-11T21:11:51.762Z,4.30
2018-12-11T21:14:20.772Z,4.47
2018-12-11T21:16:49.768Z,4.50
2018-12-11T21:19:18.826Z,4.63
2018-12-11T21:21:47.547Z,4.60
2018-12-11T21:24:16.557Z,4.30
2018-12-11T21:26:45.759Z,4.20
2018-12-11T21:29:14.752Z,3.80
2018-12-11T21:31:43.780Z,4.67
2018-12-11T21:34:13.596Z,4.27
2018-12-11T21:36:42.223Z,3.77
2018-12-11T21:39:11.205Z,3.63
2018-12-11T21:41:40.184Z,5.23
2018-12-11T21:44:09.212Z,4.57
2018-12-11T21:46:37.983Z,3.57
2018-12-11T21:49:06.903Z,3.90
2018-12-11T21:51:36.037Z,3.90
2018-12-11T21:54:05.061Z,4.20
2018-12-11T21:56:34.055Z,4.00
2018-12-11T21:59:03.072Z,4.43
2018-12-11T22:01:32.075Z,4.20
2018-12-11T22:04:00.836Z,3.97
2018-12-11T22:06:29.807Z,4.73
2018-12-11T22:08:58.544Z,4.33
2018-12-11T22:11:27.525Z,5.53
2018-12-11T22:13:56.540Z,4.37
2018-12-11T22:16:25.656Z,5.30
2018-12-11T22:18:54.672Z,4.90
2018-12-11T22:21:23.372Z,5.27
2018-12-11T22:23:52.924Z,3.97
2018-12-11T22:26:22.077Z,4.73
2018-12-11T22:28:51.131Z,6.13
2018-12-11T22:31:20.133Z,6.43
2018-12-11T22:33:49.230Z,5.60
2018-12-11T22:36:18.205Z,5.30
2018-12-11T22:38:47.214Z,5.13
2018-12-11T22:41:16.796Z,5.33
2018-12-11T22:43:45.739Z,5.37
2018-12-11T22:46:15.383Z,4.77
2018-12-11T22:48:44.211Z,5.37
2018-12-11T22:51:13.460Z,4.77
2018-12-11T22:53:42.484Z,6.27
2018-12-11T22:56:11.476Z,8.27
2018-12-11T22:58:40.186Z,6.87
2018-12-11T23:01:09.320Z,4.90
2018-12-11T23:03:38.402Z,5.30
2018-12-11T23:06:07.391Z,5.50
2018-12-11T23:08:36.442Z,6.27
2018-12-11T23:11:06.514Z,5.13
2018-12-11T23:13:35.260Z,6.10
2018-12-11T23:16:04.217Z,4.53
2018-12-11T23:18:33.011Z,5.23
2018-12-11T23:21:02.263Z,4.93
2018-12-11T23:23:31.419Z,5.90
2018-12-11T23:26:00.398Z,6.47
2018-12-11T23:28:29.414Z,6.40
2018-12-11T23:30:58.447Z,6.60
2018-12-11T23:33:27.617Z,5.37
2018-12-11T23:35:56.286Z,6.60
2018-12-11T23:38:25.221Z,6.83
2018-12-11T23:40:54.219Z,6.07
2018-12-11T23:43:23.285Z,5.47
2018-12-11T23:45:52.306Z,6.30
2018-12-11T23:48:21.285Z,5.63
2018-12-11T23:50:50.272Z,5.67
2018-12-11T23:53:19.304Z,5.93
2018-12-11T23:55:48.315Z,5.70
2018-12-11T23:58:17.296Z,5.73
